createdAt,value
2019-01-16T00:02:27.220Z,2.30
2019-01-16T00:05:29.983Z,2.20
2019-01-16T00:08:30.144Z,2.30
2019-01-16T00:11:30.179Z,2.20
2019-01-16T00:14:30.435Z,2.20
2019-01-16T00:17:30.800Z,2.20
2019-01-16T00:20:30.992Z,2.20
2019-01-16T00:23:30.806Z,2.20
2019-01-16T00:29:39.223Z,2.20
2019-01-16T00:32:30.091Z,2.20
2019-01-16T00:35:14.404Z,2.20
2019-01-16T00:38:08.148Z,2.20
2019-01-16T00:41:08.099Z,2.20
2019-01-16T00:44:08.564Z,2.20
2019-01-16T00:47:06.675Z,2.20
2019-01-16T00:50:08.239Z,2.10
2019-01-16T00:53:08.403Z,2.10
2019-01-16T00:56:14.704Z,2.10
2019-01-16T00:59:13.084Z,2.20
2019-01-16T01:02:20.423Z,2.20
2019-01-16T01:05:27.891Z,2.10
2019-01-16T01:08:16.032Z,2.10
2019-01-16T01:11:40.889Z,2.20
2019-01-16T01:14:42.827Z,2.10
2019-01-16T01:17:50.324Z,2.20
2019-01-16T01:20:57.624Z,2.10
2019-01-16T01:24:05.432Z,2.10
2019-01-16T01:27:12.707Z,2.20
2019-01-16T01:30:20.480Z,2.10
2019-01-16T01:33:28.284Z,2.10
2019-01-16T01:36:35.810Z,2.10
2019-01-16T01:39:43.344Z,2.10
2019-01-16T01:42:31.823Z,2.10
2019-01-16T01:45:22.578Z,2.10
2019-01-16T01:48:28.614Z,2.10
2019-01-16T01:51:32.517Z,2.10
2019-01-16T01:54:32.066Z,2.10
2019-01-16T01:57:25.623Z,2.10
2019-01-16T02:00:26.096Z,2.00
2019-01-16T02:03:25.936Z,2.00
2019-01-16T02:06:19.542Z,2.10
2019-01-16T02:09:19.633Z,2.10
2019-01-16T02:12:15.582Z,2.10
2019-01-16T02:15:15.853Z,2.00
2019-01-16T02:18:16.439Z,2.00
2019-01-16T02:21:08.152Z,1.90
2019-01-16T02:24:11.311Z,1.90
2019-01-16T02:27:11.268Z,1.90
2019-01-16T02:30:11.382Z,1.80
2019-01-16T02:33:11.585Z,1.80
2019-01-16T02:36:11.937Z,1.70
2019-01-16T02:39:11.444Z,1.70
2019-01-16T02:42:17.329Z,1.70
2019-01-16T02:45:17.200Z,1.60
2019-01-16T02:48:17.364Z,1.60
2019-01-16T02:51:11.089Z,1.60
2019-01-16T02:54:11.389Z,1.60
2019-01-16T02:57:10.996Z,1.60
2019-01-16T03:00:01.797Z,1.60
2019-01-16T03:03:02.412Z,1.60
2019-01-16T03:06:02.643Z,1.60
2019-01-16T03:08:44.156Z,1.60
2019-01-16T03:14:42.992Z,1.60
2019-01-16T03:17:46.704Z,1.50
2019-01-16T03:20:46.411Z,1.50
2019-01-16T03:23:43.336Z,1.40
2019-01-16T03:26:43.563Z,1.40
2019-01-16T03:29:43.437Z,1.40
2019-01-16T03:32:44.218Z,1.40
2019-01-16T03:35:21.093Z,1.40
2019-01-16T03:38:28.359Z,1.30
2019-01-16T03:41:35.632Z,1.40
2019-01-16T03:44:38.389Z,1.30
2019-01-16T03:47:38.708Z,1.30
2019-01-16T03:50:28.165Z,1.30
2019-01-16T03:53:27.983Z,1.30
2019-01-16T03:56:27.681Z,1.30
2019-01-16T03:59:28.171Z,1.30
2019-01-16T04:02:31.732Z,1.30
2019-01-16T04:05:32.179Z,1.30
2019-01-16T04:08:32.429Z,1.30
2019-01-16T04:11:32.628Z,1.30
2019-01-16T04:14:32.851Z,1.20
2019-01-16T04:17:33.392Z,1.20
2019-01-16T04:23:16.765Z,1.20
2019-01-16T04:26:17.062Z,1.20
2019-01-16T04:29:16.912Z,1.20
2019-01-16T04:32:17.232Z,1.20
2019-01-16T04:35:17.420Z,1.10
2019-01-16T04:38:06.140Z,1.10
2019-01-16T04:41:00.683Z,1.00
2019-01-16T04:44:00.647Z,1.00
2019-01-16T04:47:06.206Z,1.00
2019-01-16T04:49:54.397Z,1.00
2019-01-16T04:53:02.046Z,1.00
2019-01-16T04:56:09.901Z,1.00
2019-01-16T04:59:17.249Z,1.00
2019-01-16T05:05:40.011Z,0.90
2019-01-16T05:08:48.782Z,0.90
2019-01-16T05:11:56.015Z,0.80
2019-01-16T05:15:03.559Z,0.80
2019-01-16T05:18:10.840Z,0.80
2019-01-16T05:21:18.076Z,0.80
2019-01-16T05:24:25.767Z,0.80
2019-01-16T05:27:33.604Z,0.80
2019-01-16T05:30:41.157Z,0.80
2019-01-16T05:33:16.180Z,0.80
2019-01-16T05:36:23.420Z,0.80
2019-01-16T05:39:30.961Z,0.70
2019-01-16T05:42:38.621Z,0.70
2019-01-16T05:45:46.169Z,0.70
2019-01-16T05:52:20.036Z,0.60
2019-01-16T05:55:29.117Z,0.60
2019-01-16T05:58:29.319Z,0.50
2019-01-16T06:01:29.022Z,0.50
2019-01-16T06:04:27.344Z,0.40
2019-01-16T06:07:16.487Z,0.40
2019-01-16T06:10:22.220Z,0.40
2019-01-16T06:13:22.216Z,0.30
2019-01-16T06:16:25.300Z,0.30
2019-01-16T06:19:25.675Z,0.30
2019-01-16T06:22:18.804Z,0.20
2019-01-16T06:25:15.897Z,0.20
2019-01-16T06:28:19.204Z,0.20
2019-01-16T06:31:19.080Z,0.10
2019-01-16T06:34:06.928Z,0.20
2019-01-16T06:37:06.337Z,0.10
2019-01-16T06:40:05.915Z,0.10
2019-01-16T06:42:56.537Z,0.00
2019-01-16T06:45:32.979Z,0.00
2019-01-16T06:48:33.292Z,-0.10
2019-01-16T06:51:31.280Z,-0.10
2019-01-16T06:54:31.608Z,-0.10
2019-01-16T06:57:27.124Z,-0.20
2019-01-16T07:00:09.509Z,-0.20
2019-01-16T07:06:17.003Z,-0.30
2019-01-16T07:13:21.787Z,-0.40
2019-01-16T07:16:29.064Z,-0.40
2019-01-16T07:19:36.679Z,-0.40
2019-01-16T07:22:44.024Z,-0.40
2019-01-16T07:25:44.943Z,-0.50
2019-01-16T07:28:52.184Z,-0.40
2019-01-16T07:31:59.455Z,-0.50
2019-01-16T07:35:06.965Z,-0.30
2019-01-16T07:37:56.912Z,-0.10
2019-01-16T07:40:57.645Z,-0.20
2019-01-16T07:44:00.795Z,-0.20
2019-01-16T07:47:03.599Z,-0.30
2019-01-16T07:50:06.592Z,-0.40
2019-01-16T07:53:04.871Z,-0.40
2019-01-16T07:56:12.453Z,-0.50
2019-01-16T07:59:21.965Z,-0.50
2019-01-16T08:02:29.125Z,-0.60
2019-01-16T08:05:36.476Z,-0.60
2019-01-16T08:08:43.749Z,-0.60
2019-01-16T08:11:51.028Z,-0.60
2019-01-16T08:14:58.535Z,-0.60
2019-01-16T08:18:06.082Z,-0.50
2019-01-16T08:21:13.405Z,-0.60
2019-01-16T08:24:20.756Z,-0.50
2019-01-16T08:27:28.026Z,-0.50
2019-01-16T08:30:35.260Z,-0.50
2019-01-16T08:33:42.828Z,-0.50
2019-01-16T08:36:50.368Z,-0.50
2019-01-16T08:39:56.432Z,-0.40
2019-01-16T08:42:50.843Z,-0.40
2019-01-16T08:45:50.896Z,-0.30
2019-01-16T08:48:54.095Z,-0.20
2019-01-16T08:51:53.627Z,-0.20
2019-01-16T08:54:53.190Z,-0.10
2019-01-16T08:57:53.148Z,-0.10
2019-01-16T09:00:55.656Z,0.00
2019-01-16T09:03:55.616Z,0.10
2019-01-16T09:06:55.141Z,0.10
2019-01-16T09:09:55.483Z,0.20
2019-01-16T09:16:14.164Z,0.40
2019-01-16T09:19:13.729Z,0.40
2019-01-16T09:22:14.044Z,0.40
2019-01-16T09:28:19.125Z,0.50
2019-01-16T09:31:18.988Z,0.50
2019-01-16T09:34:19.645Z,0.60
2019-01-16T09:37:25.908Z,0.60
2019-01-16T09:40:25.732Z,0.60
2019-01-16T09:46:07.169Z,0.70
2019-01-16T09:48:49.360Z,0.80
2019-01-16T09:51:42.414Z,0.80
2019-01-16T09:54:38.659Z,0.90
2019-01-16T09:57:41.385Z,1.00
2019-01-16T10:00:41.714Z,1.00
2019-01-16T10:03:42.077Z,1.10
2019-01-16T10:06:42.440Z,1.20
2019-01-16T10:09:42.659Z,1.20
2019-01-16T10:12:42.997Z,1.30
2019-01-16T10:15:42.953Z,1.40
2019-01-16T10:21:54.738Z,1.50
2019-01-16T10:25:02.083Z,1.60
2019-01-16T10:28:09.628Z,1.70
2019-01-16T10:31:16.905Z,1.80
2019-01-16T10:34:24.184Z,1.90
2019-01-16T10:37:31.683Z,1.90
2019-01-16T10:40:39.231Z,2.00
2019-01-16T10:43:46.472Z,2.10
2019-01-16T10:46:53.744Z,2.20
2019-01-16T10:49:53.463Z,2.30
2019-01-16T10:53:00.976Z,2.40
2019-01-16T10:56:08.263Z,2.50
2019-01-16T10:59:15.575Z,2.50
2019-01-16T11:02:22.879Z,2.60
2019-01-16T11:05:28.740Z,2.70
2019-01-16T11:08:35.984Z,2.80
2019-01-16T11:11:43.812Z,2.90
2019-01-16T11:14:53.092Z,3.00
2019-01-16T11:17:52.884Z,3.00
2019-01-16T11:20:53.328Z,3.10
2019-01-16T11:23:55.895Z,3.20
2019-01-16T11:26:56.464Z,3.20
2019-01-16T11:29:55.904Z,3.30
2019-01-16T11:39:37.237Z,3.60
2019-01-16T11:42:44.515Z,3.70
2019-01-16T11:45:52.132Z,3.80
2019-01-16T11:48:59.453Z,3.80
2019-01-16T11:51:49.463Z,3.90
2019-01-16T11:54:49.773Z,3.90
2019-01-16T11:57:55.626Z,3.90
2019-01-16T12:00:58.627Z,4.00
2019-01-16T12:03:58.456Z,4.10
2019-01-16T12:06:57.969Z,4.10
2019-01-16T12:09:57.737Z,4.20
2019-01-16T12:13:00.572Z,4.20
2019-01-16T12:16:00.515Z,4.30
2019-01-16T12:19:02.797Z,4.30
2019-01-16T12:22:02.881Z,4.40
2019-01-16T12:25:03.100Z,4.50
2019-01-16T12:28:02.747Z,4.60
2019-01-16T12:31:05.659Z,4.70
2019-01-16T12:34:06.223Z,4.70
2019-01-16T12:37:06.244Z,4.80
2019-01-16T12:40:06.688Z,4.90
2019-01-16T12:43:05.906Z,4.90
2019-01-16T12:46:13.457Z,5.00
2019-01-16T12:49:20.970Z,5.00
2019-01-16T12:52:28.312Z,5.00
2019-01-16T12:55:35.587Z,5.00
2019-01-16T12:58:43.368Z,5.10
2019-01-16T13:01:50.745Z,5.00
2019-01-16T13:04:58.353Z,5.00
2019-01-16T13:08:05.632Z,5.00
2019-01-16T13:11:12.910Z,5.10
2019-01-16T13:14:20.154Z,5.10
2019-01-16T13:17:27.688Z,5.10
2019-01-16T13:20:55.851Z,5.10
2019-01-16T13:24:03.357Z,5.10
2019-01-16T13:27:10.641Z,5.00
2019-01-16T13:30:17.952Z,5.10
2019-01-16T13:33:25.500Z,5.10
2019-01-16T13:36:35.269Z,4.90
2019-01-16T13:39:42.859Z,5.10
2019-01-16T13:42:30.496Z,5.10
2019-01-16T13:45:38.008Z,5.10
2019-01-16T13:48:37.424Z,5.20
2019-01-16T13:51:34.163Z,5.10
2019-01-16T13:54:41.479Z,5.20
2019-01-16T13:57:48.756Z,5.20
2019-01-16T14:00:56.288Z,5.20
2019-01-16T14:04:03.851Z,5.20
2019-01-16T14:07:11.134Z,5.20
2019-01-16T14:10:18.439Z,5.20
2019-01-16T14:13:25.991Z,5.20
2019-01-16T14:16:33.495Z,5.20
2019-01-16T14:19:24.479Z,5.20
2019-01-16T14:22:23.196Z,5.20
2019-01-16T14:25:30.710Z,5.20
2019-01-16T14:28:37.983Z,5.20
2019-01-16T14:34:46.171Z,5.10
2019-01-16T14:37:53.438Z,5.10
2019-01-16T14:41:01.232Z,5.10
2019-01-16T14:44:08.820Z,5.00
2019-01-16T14:47:08.335Z,5.00
2019-01-16T14:50:15.881Z,5.00
2019-01-16T14:53:23.357Z,5.00
2019-01-16T14:56:11.504Z,4.90
2019-01-16T14:59:18.828Z,4.90
2019-01-16T15:02:22.984Z,4.90
2019-01-16T15:05:30.632Z,4.80
2019-01-16T15:08:29.272Z,4.80
2019-01-16T15:11:36.539Z,4.80
2019-01-16T15:14:43.855Z,4.80
2019-01-16T15:18:09.003Z,4.70
2019-01-16T15:27:51.912Z,4.60
2019-01-16T15:30:59.232Z,4.50
2019-01-16T15:33:58.698Z,4.50
2019-01-16T15:36:59.332Z,4.40
2019-01-16T15:39:57.667Z,4.30
2019-01-16T15:43:05.231Z,4.30
2019-01-16T15:46:12.535Z,4.20
2019-01-16T15:48:59.551Z,4.10
2019-01-16T15:51:55.823Z,4.10
2019-01-16T15:55:03.172Z,4.10
2019-01-16T15:58:10.488Z,4.00
2019-01-16T16:01:18.160Z,4.00
2019-01-16T16:04:05.860Z,3.90
2019-01-16T16:07:13.636Z,3.80
2019-01-16T16:10:21.009Z,3.70
2019-01-16T16:13:28.592Z,3.70
2019-01-16T16:16:35.932Z,3.70
2019-01-16T16:19:43.280Z,3.60
2019-01-16T16:22:50.841Z,3.60
2019-01-16T16:25:58.536Z,3.50
2019-01-16T16:29:06.160Z,3.50
2019-01-16T16:32:05.644Z,3.50
2019-01-16T16:35:06.248Z,3.50
2019-01-16T16:44:27.573Z,3.50
2019-01-16T16:47:33.704Z,3.60
2019-01-16T16:53:42.523Z,3.50
2019-01-16T16:56:23.594Z,3.50
2019-01-16T16:59:19.868Z,3.40
2019-01-16T17:02:19.975Z,3.40
2019-01-16T17:05:00.907Z,3.40
2019-01-16T17:07:54.042Z,3.30
2019-01-16T17:10:46.762Z,3.30
2019-01-16T17:13:49.014Z,3.20
2019-01-16T17:16:50.955Z,3.10
2019-01-16T17:19:51.540Z,3.10
2019-01-16T17:26:01.983Z,3.00
2019-01-16T17:29:02.237Z,2.90
2019-01-16T17:31:58.777Z,2.90
2019-01-16T17:35:06.139Z,2.80
2019-01-16T17:38:13.413Z,2.80
2019-01-16T17:41:13.999Z,2.80
2019-01-16T17:44:21.779Z,2.70
2019-01-16T17:47:29.247Z,2.70
2019-01-16T17:50:36.895Z,2.70
2019-01-16T17:53:44.408Z,2.60
2019-01-16T17:56:51.764Z,2.60
2019-01-16T17:59:59.072Z,2.60
2019-01-16T18:03:06.724Z,2.60
2019-01-16T18:06:14.432Z,2.50
2019-01-16T18:09:21.944Z,2.50
2019-01-16T18:12:32.063Z,2.50
2019-01-16T18:15:39.427Z,2.40
2019-01-16T18:18:46.664Z,2.40
2019-01-16T18:21:46.928Z,2.40
2019-01-16T18:24:35.618Z,2.40
2019-01-16T18:27:43.052Z,2.40
2019-01-16T18:30:50.828Z,2.40
2019-01-16T18:33:58.331Z,2.40
2019-01-16T18:37:22.357Z,2.40
2019-01-16T18:40:30.907Z,2.40
2019-01-16T18:43:38.545Z,2.40
2019-01-16T18:47:06.675Z,2.40
2019-01-16T18:50:13.924Z,2.40
2019-01-16T18:53:21.294Z,2.50
2019-01-16T18:56:28.645Z,2.50
2019-01-16T18:59:36.209Z,2.60
2019-01-16T19:02:36.566Z,2.80
2019-01-16T19:06:01.687Z,2.80
2019-01-16T19:11:57.816Z,2.90
2019-01-16T19:15:05.346Z,2.90
2019-01-16T19:18:13.039Z,2.90
2019-01-16T19:21:13.480Z,2.80
2019-01-16T19:24:13.552Z,2.80
2019-01-16T19:27:13.252Z,2.80
2019-01-16T19:30:13.681Z,2.80
2019-01-16T19:33:16.592Z,2.80
2019-01-16T19:36:10.055Z,2.70
2019-01-16T19:39:09.986Z,2.70
2019-01-16T19:42:10.224Z,2.70
2019-01-16T19:45:10.231Z,2.70
2019-01-16T19:48:10.262Z,2.80
2019-01-16T19:51:10.245Z,2.80
2019-01-16T19:53:54.084Z,2.80
2019-01-16T19:56:53.648Z,2.80
2019-01-16T19:59:46.265Z,2.80
2019-01-16T20:02:47.007Z,2.80
2019-01-16T20:05:46.415Z,2.80
2019-01-16T20:08:46.623Z,2.80
2019-01-16T20:11:52.763Z,2.80
2019-01-16T20:14:52.358Z,2.70
2019-01-16T20:17:52.996Z,2.70
2019-01-16T20:20:52.637Z,2.70
2019-01-16T20:23:45.139Z,2.70
2019-01-16T20:26:43.535Z,2.70
2019-01-16T20:29:42.087Z,2.70
2019-01-16T20:32:42.439Z,2.70
2019-01-16T20:35:42.517Z,2.80
2019-01-16T20:44:45.463Z,2.80
2019-01-16T20:47:33.628Z,2.80
2019-01-16T20:53:18.823Z,2.80
2019-01-16T20:56:26.333Z,2.90
2019-01-16T20:59:33.704Z,2.80
2019-01-16T21:02:41.329Z,2.80
2019-01-16T21:05:48.912Z,2.70
2019-01-16T21:08:56.236Z,2.80
2019-01-16T21:12:03.836Z,2.70
2019-01-16T21:15:11.363Z,2.70
2019-01-16T21:18:18.963Z,2.70
2019-01-16T21:21:18.988Z,2.70
2019-01-16T21:27:08.595Z,2.60
2019-01-16T21:30:11.714Z,2.60
2019-01-16T21:33:11.696Z,2.60
2019-01-16T21:36:11.807Z,2.60
2019-01-16T21:39:12.328Z,2.60
2019-01-16T21:45:35.072Z,2.50
2019-01-16T21:48:35.051Z,2.50
2019-01-16T21:51:43.736Z,2.50
2019-01-16T21:54:41.657Z,2.50
2019-01-16T21:57:42.132Z,2.60
2019-01-16T22:00:31.904Z,2.60
2019-01-16T22:03:31.808Z,2.60
2019-01-16T22:06:31.529Z,2.60
2019-01-16T22:09:31.770Z,2.60
2019-01-16T22:12:31.235Z,2.50
2019-01-16T22:15:12.749Z,2.50
2019-01-16T22:18:09.023Z,2.50
2019-01-16T22:20:58.159Z,2.50
2019-01-16T22:23:52.638Z,2.50
2019-01-16T22:26:38.832Z,2.40
2019-01-16T22:29:43.015Z,2.40
2019-01-16T22:32:37.227Z,2.40
2019-01-16T22:35:24.271Z,2.40
2019-01-16T22:38:31.800Z,2.40
2019-01-16T22:41:35.483Z,2.40
2019-01-16T22:44:42.840Z,2.30
2019-01-16T22:47:50.353Z,2.30
2019-01-16T22:50:57.695Z,2.30
2019-01-16T22:54:04.969Z,2.20
2019-01-16T22:57:12.211Z,2.20
2019-01-16T23:00:19.484Z,2.20
2019-01-16T23:03:26.720Z,2.10
2019-01-16T23:09:41.755Z,2.10
2019-01-16T23:12:48.991Z,2.10
2019-01-16T23:15:56.600Z,2.10
2019-01-16T23:19:03.897Z,2.10
2019-01-16T23:21:56.556Z,2.10
2019-01-16T23:24:56.776Z,2.10
2019-01-16T23:27:56.091Z,2.10
2019-01-16T23:30:56.024Z,2.10
2019-01-16T23:33:55.591Z,2.10
2019-01-16T23:40:04.504Z,2.00
2019-01-16T23:45:59.947Z,2.00
2019-01-16T23:48:58.238Z,2.00
2019-01-16T23:51:58.383Z,2.00
2019-01-16T23:54:47.309Z,2.00
2019-01-16T23:57:54.552Z,2.00
